Buford, Wyoming
Current Conditions -  °F | °C
As of 1:56 PM on Friday 31 Oct 2014 (Local Time) from KFEW Reporting Station
Clear Clear  
Wind Chill: 50°   Ceiling: Unl
Heat Index: 50°   Visibility: 10mi
Dew Point: 28°   Wind: 18mph
Humidity: 42%   Direction: 180°S
Pressure: 30.14"   Gusts: 26mph
Location:  41.12°N, 105.31°W
Report Text: KFEW 311956Z AUTO 18016G23KT 10SM CLR 10/M02 A3014 RMK AO2 SLP198 T01001024 $
Loading
Personal Weather Stations






























Interactive Weather Map
Tropical Storm Tracking
New forecast layout! Learn more

10-Day Weather Forecast

Advertisements
Track Severe Weather on mobile